»·PEaware :: DAL1759 KSLC-KJAC

DAL1759 :: KSLC-KJAC

FLIGHT INFORMATION

Flight Status: Arrived
Operator:
Delta Air Lines
More flights by this operator :: More flights under this callsign
Pilot: Chandler S. (807)
Aircraft: AIRBUS A319
(A319)
More flights by this aircraft type
Origin: KSLC Salt Lake City Intl
United States
Destination: KJAC Jackson Hole
United States
More flights between these airports :: More routes between these airports
Route: RUGGD1 HOLTR EBACA LEIDY DNW
File this flight plan on PilotEdge
Remarks:
Altitude:
(Current/Filed)
29,000ft
Speed:
(Current/Filed)
400kts
Departed: 21-Oct-20 09:22 AM
Arrived: 21-Oct-20 10:02 AM
Distance/Time
Traveled:
178nm/0:39
Distance/Time
To Go:
Arrived

Flight Plot

Page will automatically refresh every two minutes.

Flight plan parsing failed; only flown route is shown


Map Options




Map Legend


Flown Route
Filed Route
Departure Airport
Arrival Airport
Navaid (VOR, NDB)
Fix

Horizontal Profiles

Position Reports

Time Latitude Longitude Heading Altitude Ground
Speed
21-Oct-20 09:00 40.789272 -111.985259 165 4235ft 0kts
21-Oct-20 09:01 40.789272 -111.985259 165 4235ft 0kts
21-Oct-20 09:02 40.789272 -111.985259 165 4235ft 0kts
21-Oct-20 09:03 40.789272 -111.985259 165 4235ft 0kts
21-Oct-20 09:04 40.789272 -111.985259 165 4235ft 0kts
21-Oct-20 09:05 40.789272 -111.985259 165 4235ft 0kts
21-Oct-20 09:06 40.789272 -111.985259 165 4235ft 0kts
21-Oct-20 09:07 40.789272 -111.985259 165 4235ft 0kts
21-Oct-20 09:08 40.789436 -111.985318 164 4235ft 2kts
21-Oct-20 09:09 40.789975 -111.985131 235 4235ft 2kts
21-Oct-20 09:10 40.790057 -111.984773 267 4235ft 0kts
21-Oct-20 09:11 40.790057 -111.984773 267 4235ft 0kts
21-Oct-20 09:12 40.790056 -111.984808 267 4235ft 2kts
21-Oct-20 09:13 40.790242 -111.986019 329 4235ft 0kts
21-Oct-20 09:14 40.791602 -111.985187 90 4235ft 11kts
21-Oct-20 09:15 40.792026 -111.978284 84 4235ft 21kts
21-Oct-20 09:16 40.797193 -111.977891 355 4235ft 20kts
21-Oct-20 09:17 40.802860 -111.978384 6 4235ft 20kts
21-Oct-20 09:18 40.807190 -111.978454 35 4235ft 0kts
21-Oct-20 09:19 40.807190 -111.978454 35 4235ft 0kts
21-Oct-20 09:20 40.807442 -111.977967 78 4235ft 11kts
21-Oct-20 09:21 40.781020 -111.974040 174 4849ft 181kts
21-Oct-20 09:22 40.748559 -112.013518 285 8166ft 214kts
21-Oct-20 09:23 40.786794 -112.078055 306 9998ft 243kts
21-Oct-20 09:24 40.857500 -112.085025 15 11469ft 311kts
21-Oct-20 09:25 40.941833 -112.052951 11 14687ft 320kts
21-Oct-20 09:26 41.026755 -112.023449 11 17884ft 313kts
21-Oct-20 09:27 41.078540 -111.932226 62 20522ft 330kts
21-Oct-20 09:28 41.116586 -111.822002 59 22816ft 324kts
21-Oct-20 09:29 41.177211 -111.755840 356 24366ft 284kts
21-Oct-20 09:30 41.256405 -111.738816 358 25871ft 294kts
21-Oct-20 09:31 41.337830 -111.719595 357 27275ft 301kts
21-Oct-20 09:32 41.420692 -111.695412 4 28609ft 314kts
21-Oct-20 09:33 41.508108 -111.661314 5 29058ft 351kts
21-Oct-20 09:34 41.608954 -111.621772 6 29056ft 405kts
21-Oct-20 09:35 41.723422 -111.576502 7 29054ft 453kts
21-Oct-20 09:36 41.849891 -111.535363 1 29053ft 473kts
21-Oct-20 09:37 41.979233 -111.506334 1 29053ft 473kts
21-Oct-20 09:38 42.108947 -111.476957 1 29054ft 474kts
21-Oct-20 09:39 42.238612 -111.447375 1 29055ft 474kts
21-Oct-20 09:40 42.364966 -111.384478 21 29061ft 497kts
21-Oct-20 09:41 42.490676 -111.285649 23 29060ft 499kts
21-Oct-20 09:42 42.614634 -111.188453 22 29060ft 498kts
21-Oct-20 09:43 42.734369 -111.094624 22 29060ft 498kts
21-Oct-20 09:44 42.854483 -111.000091 22 28765ft 499kts
21-Oct-20 09:45 42.972624 -110.906571 22 26796ft 489kts
21-Oct-20 09:46 43.089549 -110.813802 23 24887ft 483kts
21-Oct-20 09:47 43.203412 -110.723204 23 22980ft 461kts
21-Oct-20 09:48 43.310844 -110.637025 24 21536ft 433kts
21-Oct-20 09:49 43.403782 -110.534745 40 19957ft 424kts
21-Oct-20 09:50 43.483653 -110.428382 40 18253ft 382kts
21-Oct-20 09:51 43.568020 -110.354308 356 16622ft 349kts
21-Oct-20 09:52 43.662856 -110.350743 359 15111ft 336kts
21-Oct-20 09:53 43.751082 -110.341429 1 13653ft 310kts
21-Oct-20 09:54 43.818753 -110.379380 290 12999ft 265kts
21-Oct-20 09:55 43.818358 -110.477703 262 11790ft 248kts
21-Oct-20 09:56 43.801478 -110.569131 244 10448ft 236kts
21-Oct-20 09:57 43.768014 -110.637357 219 9431ft 205kts
21-Oct-20 09:58 43.724028 -110.680668 202 8380ft 188kts
21-Oct-20 09:59 43.675795 -110.704266 201 7828ft 172kts
21-Oct-20 10:00 43.632900 -110.725015 202 6912ft 156kts
21-Oct-20 10:01 43.601488 -110.740558 199 6460ft 35kts
21-Oct-20 10:02 43.602571 -110.738471 20 6459ft 18kts
21-Oct-20 10:04 43.602758 -110.737580 109 6459ft 0kts
21-Oct-20 10:05 43.602758 -110.737580 109 6459ft 0kts
21-Oct-20 10:06 43.602758 -110.737580 109 6459ft 0kts
21-Oct-20 10:07 43.602758 -110.737580 109 6459ft 0kts

Navigation Log

Ident Type
Flight plan parsing failed, navigation log unavailable